Terminal Aerodrome Forecast
Issued by NWS

Home | Current Version | Previous Version | Text Only | Print | Product List | Glossary Off
Versions: 1 2 3 4 5 6 7 8 9 10 11 12 13 14 15 16 17 18 19 20 21 22 23 24 25 26 27

000
FTUS43 KICT 241249 AAA
TAFSLN
TAF AMD
KSLN 241249Z 2413/2512 15005KT 3SM BR SCT002 BKN009
      TEMPO 2413/2414 1/4SM FG BKN002
     FM241500 16008KT 5SM BR SCT009 BKN015
     FM241700 17010KT P6SM VCSH SCT015 BKN025=

USA.gov is the U.S. government's official web portal to all federal, state and local government web resources and services.